createdAt,value
2018-12-05T00:01:09.749Z,1.60
2018-12-05T00:03:38.266Z,1.80
2018-12-05T00:08:50.581Z,1.87
2018-12-05T00:11:19.452Z,1.77
2018-12-05T00:16:29.438Z,1.63
2018-12-05T00:18:58.156Z,1.40
2018-12-05T00:21:26.521Z,1.43
2018-12-05T00:23:54.952Z,1.60
2018-12-05T00:29:04.976Z,1.40
2018-12-05T00:31:33.418Z,1.30
2018-12-05T00:34:02.168Z,1.27
2018-12-05T00:36:30.531Z,1.50
2018-12-05T00:41:42.398Z,1.30
2018-12-05T00:44:10.781Z,1.53
2018-12-05T00:46:39.171Z,1.40
2018-12-05T00:51:53.981Z,1.37
2018-12-05T00:57:03.899Z,1.57
2018-12-05T00:59:32.296Z,1.53
2018-12-05T01:02:00.781Z,1.50
2018-12-05T01:04:29.374Z,1.87
2018-12-05T01:09:43.473Z,1.60
2018-12-05T01:12:12.200Z,1.67
2018-12-05T01:17:22.190Z,1.60
2018-12-05T01:19:52.007Z,1.53
2018-12-05T01:25:03.042Z,1.97
2018-12-05T01:27:31.507Z,1.50
2018-12-05T01:29:59.922Z,1.53
2018-12-05T01:32:28.450Z,1.70
2018-12-05T01:37:38.866Z,1.70
2018-12-05T01:40:07.535Z,1.63
2018-12-05T01:45:17.470Z,1.57
2018-12-05T01:47:45.915Z,1.73
2018-12-05T01:50:14.512Z,1.63
2018-12-05T01:52:43.012Z,2.10
2018-12-05T01:55:11.543Z,1.67
2018-12-05T01:57:40.016Z,1.67
2018-12-05T02:00:08.983Z,2.13
2018-12-05T02:02:38.084Z,1.70
2018-12-05T02:05:06.789Z,2.07
2018-12-05T02:10:17.198Z,1.77
2018-12-05T02:12:45.679Z,2.00
2018-12-05T02:15:14.285Z,1.73
2018-12-05T02:17:46.828Z,2.10
2018-12-05T02:22:56.919Z,1.70
2018-12-05T02:25:25.632Z,1.80
2018-12-05T02:27:54.030Z,2.00
2018-12-05T02:30:22.471Z,1.90
2018-12-05T02:35:32.470Z,1.90
2018-12-05T02:38:00.901Z,1.80
2018-12-05T02:40:29.255Z,1.83
2018-12-05T02:42:58.173Z,1.70
2018-12-05T02:45:27.876Z,1.80
2018-12-05T02:47:56.311Z,2.20
2018-12-05T02:50:24.815Z,1.83
2018-12-05T02:52:53.256Z,2.27
2018-12-05T02:55:21.670Z,1.70
2018-12-05T02:57:51.302Z,1.67
2018-12-05T03:00:19.843Z,1.60
2018-12-05T03:02:48.298Z,2.07
2018-12-05T03:05:17.012Z,1.60
2018-12-05T03:10:28.168Z,1.70
2018-12-05T03:15:38.148Z,1.43
2018-12-05T03:18:06.780Z,1.70
2018-12-05T03:20:35.150Z,1.67
2018-12-05T03:23:03.616Z,1.50
2018-12-05T03:25:32.009Z,1.80
2018-12-05T03:28:00.425Z,1.40
2018-12-05T03:30:28.893Z,1.70
2018-12-05T03:35:38.940Z,1.27
2018-12-05T03:38:07.808Z,1.67
2018-12-05T03:40:36.502Z,1.67
2018-12-05T03:43:04.963Z,1.57
2018-12-05T03:45:33.563Z,1.50
2018-12-05T03:50:43.613Z,1.70
2018-12-05T03:55:53.913Z,1.60
2018-12-05T03:58:22.390Z,1.80
2018-12-05T04:00:50.892Z,1.70
2018-12-05T04:03:19.320Z,1.10
2018-12-05T04:05:47.806Z,1.50
2018-12-05T04:10:57.951Z,1.40
2018-12-05T04:16:34.099Z,1.93
2018-12-05T04:19:02.719Z,1.47
2018-12-05T04:21:31.089Z,1.30
2018-12-05T04:26:41.356Z,1.50
2018-12-05T04:29:09.808Z,1.33
2018-12-05T04:31:38.193Z,1.53
2018-12-05T04:34:06.695Z,1.70
2018-12-05T04:39:17.166Z,1.50
2018-12-05T04:41:45.538Z,1.50
2018-12-05T04:46:55.569Z,1.40
2018-12-05T04:49:24.082Z,2.33
2018-12-05T04:51:52.493Z,1.47
2018-12-05T04:54:20.928Z,1.33
2018-12-05T04:59:31.107Z,1.40
2018-12-05T05:01:59.647Z,1.47
2018-12-05T05:07:09.774Z,2.23
2018-12-05T05:09:38.325Z,1.50
2018-12-05T05:12:06.744Z,1.47
2018-12-05T05:14:35.183Z,1.40
2018-12-05T05:19:45.320Z,1.30
2018-12-05T05:22:13.804Z,1.53
2018-12-05T05:24:42.315Z,1.40
2018-12-05T05:27:10.847Z,1.40
2018-12-05T05:29:39.370Z,1.50
2018-12-05T05:34:49.850Z,1.53
2018-12-05T05:37:18.295Z,1.63
2018-12-05T05:39:47.846Z,1.43
2018-12-05T05:42:16.501Z,1.90
2018-12-05T05:47:26.534Z,1.77
2018-12-05T05:49:55.271Z,1.77
2018-12-05T05:52:23.690Z,1.70
2018-12-05T05:54:52.169Z,1.50
2018-12-05T06:00:02.378Z,1.40
2018-12-05T06:02:31.177Z,1.47
2018-12-05T06:07:41.938Z,1.60
2018-12-05T06:10:10.333Z,1.27
2018-12-05T06:15:20.314Z,1.53
2018-12-05T06:17:48.754Z,1.43
2018-12-05T06:20:17.267Z,1.10
2018-12-05T06:22:45.728Z,1.10
2018-12-05T06:27:55.759Z,1.20
2018-12-05T06:30:24.189Z,1.40
2018-12-05T06:35:34.623Z,1.47
2018-12-05T06:38:03.218Z,1.63
2018-12-05T06:40:31.590Z,1.70
2018-12-05T06:43:00.073Z,1.83
2018-12-05T06:45:28.812Z,2.43
2018-12-05T06:47:57.301Z,2.43
2018-12-05T06:50:25.678Z,2.10
2018-12-05T06:52:54.155Z,2.53
2018-12-05T06:55:22.593Z,2.80
2018-12-05T06:57:51.013Z,2.50
2018-12-05T07:00:19.681Z,2.47
2018-12-05T07:02:48.452Z,2.00
2018-12-05T07:05:16.986Z,2.87
2018-12-05T07:07:45.439Z,2.60
2018-12-05T07:10:13.775Z,2.87
2018-12-05T07:15:23.996Z,2.40
2018-12-05T07:17:52.426Z,2.50
2018-12-05T07:20:20.810Z,3.17
2018-12-05T07:22:49.273Z,2.63
2018-12-05T07:25:18.733Z,2.33
2018-12-05T07:27:47.217Z,2.23
2018-12-05T07:30:15.947Z,2.93
2018-12-05T07:32:44.345Z,4.50
2018-12-05T07:35:12.769Z,2.37
2018-12-05T07:37:41.134Z,2.27
2018-12-05T07:42:51.225Z,2.37
2018-12-05T07:48:01.463Z,2.30
2018-12-05T07:50:30.195Z,3.20
2018-12-05T07:52:58.639Z,2.20
2018-12-05T07:58:08.847Z,2.50
2018-12-05T08:00:37.236Z,2.97
2018-12-05T08:05:50.703Z,4.47
2018-12-05T08:08:19.396Z,2.57
2018-12-05T08:10:47.798Z,3.07
2018-12-05T08:15:57.714Z,2.70
2018-12-05T08:18:26.095Z,3.13
2018-12-05T08:20:54.754Z,3.37
2018-12-05T08:23:23.134Z,3.27
2018-12-05T08:25:51.516Z,3.13
2018-12-05T08:31:01.989Z,2.70
2018-12-05T08:36:11.884Z,2.73
2018-12-05T08:38:40.270Z,2.93
2018-12-05T08:41:09.036Z,3.23
2018-12-05T08:43:37.541Z,2.70
2018-12-05T08:46:05.966Z,2.93
2018-12-05T08:48:34.304Z,3.10
2018-12-05T08:51:02.747Z,2.97
2018-12-05T08:53:31.166Z,2.47
2018-12-05T08:55:59.627Z,2.47
2018-12-05T08:58:27.980Z,4.13
2018-12-05T09:00:56.422Z,2.70
2018-12-05T09:03:24.803Z,2.93
2018-12-05T09:05:53.172Z,3.27
2018-12-05T09:08:21.684Z,3.17
2018-12-05T09:10:50.119Z,3.17
2018-12-05T09:13:18.423Z,2.97
2018-12-05T09:18:28.215Z,2.27
2018-12-05T09:21:01.507Z,2.10
2018-12-05T09:23:29.852Z,2.47
2018-12-05T09:25:58.150Z,2.30
2018-12-05T09:28:26.705Z,2.40
2018-12-05T09:30:55.704Z,2.10
2018-12-05T09:36:06.294Z,2.73
2018-12-05T09:38:34.874Z,2.60
2018-12-05T09:41:05.584Z,2.57
2018-12-05T09:43:33.992Z,2.10
2018-12-05T09:46:02.522Z,2.13
2018-12-05T09:48:31.086Z,2.13
2018-12-05T09:50:59.588Z,2.47
2018-12-05T09:56:10.078Z,3.03
2018-12-05T09:58:38.648Z,2.27
2018-12-05T10:01:07.512Z,2.87
2018-12-05T10:03:36.027Z,2.90
2018-12-05T10:08:46.050Z,3.87
2018-12-05T10:11:14.489Z,3.50
2018-12-05T10:16:26.021Z,3.23
2018-12-05T10:18:54.410Z,3.63
2018-12-05T10:21:22.973Z,5.30
2018-12-05T10:23:51.414Z,3.30
2018-12-05T10:26:20.079Z,3.27
2018-12-05T10:31:30.526Z,2.30
2018-12-05T10:36:40.483Z,2.83
2018-12-05T10:39:09.717Z,2.20
2018-12-05T10:41:44.873Z,2.20
2018-12-05T10:44:13.390Z,2.17
2018-12-05T10:49:23.306Z,2.83
2018-12-05T10:51:51.875Z,2.37
2018-12-05T10:57:02.578Z,2.50
2018-12-05T10:59:31.024Z,2.13
2018-12-05T11:04:55.412Z,2.73
2018-12-05T11:07:29.660Z,3.07
2018-12-05T11:10:03.660Z,2.57
2018-12-05T11:12:38.662Z,5.83
2018-12-05T11:15:13.783Z,15.17
2018-12-05T11:20:45.538Z,4.80
2018-12-05T11:23:19.596Z,3.20
2018-12-05T11:28:36.230Z,4.37
2018-12-05T11:31:04.871Z,4.07
2018-12-05T11:36:16.064Z,2.70
2018-12-05T11:38:44.487Z,2.97
2018-12-05T11:41:12.923Z,3.07
2018-12-05T11:43:41.251Z,2.47
2018-12-05T11:48:51.199Z,3.20
2018-12-05T11:51:19.572Z,3.03
2018-12-05T11:53:47.987Z,3.40
2018-12-05T11:56:16.353Z,2.93
2018-12-05T12:01:26.259Z,2.53
2018-12-05T12:03:54.744Z,2.67
2018-12-05T12:06:25.239Z,2.70
2018-12-05T12:08:53.790Z,2.97
2018-12-05T12:11:27.875Z,2.37
2018-12-05T12:13:56.274Z,3.70
2018-12-05T12:16:24.964Z,4.10
2018-12-05T12:18:53.878Z,5.27
2018-12-05T12:21:22.365Z,3.93
2018-12-05T12:23:50.849Z,4.37
2018-12-05T12:28:58.177Z,5.33
2018-12-05T12:31:26.484Z,6.40
2018-12-05T12:33:54.886Z,3.47
2018-12-05T12:36:23.313Z,4.93
2018-12-05T12:38:51.729Z,5.27
2018-12-05T12:41:20.150Z,5.43
2018-12-05T12:43:48.550Z,4.07
2018-12-05T12:46:17.406Z,4.73
2018-12-05T12:48:45.888Z,4.07
2018-12-05T12:51:14.310Z,3.43
2018-12-05T12:53:44.045Z,3.50
2018-12-05T12:56:12.464Z,3.50
2018-12-05T13:01:22.546Z,5.10
2018-12-05T13:03:50.993Z,4.20
2018-12-05T13:06:19.907Z,11.43
2018-12-05T13:11:35.287Z,6.13
2018-12-05T13:14:03.907Z,4.40
2018-12-05T13:16:32.326Z,4.33
2018-12-05T13:21:42.290Z,5.10
2018-12-05T13:24:10.665Z,3.33
2018-12-05T13:29:20.543Z,4.63
2018-12-05T13:31:48.999Z,5.73
2018-12-05T13:36:58.955Z,4.30
2018-12-05T13:39:27.383Z,4.30
2018-12-05T13:41:55.844Z,4.23
2018-12-05T13:44:24.481Z,4.87
2018-12-05T13:49:34.949Z,5.97
2018-12-05T13:52:03.641Z,3.97
2018-12-05T13:54:32.046Z,4.73
2018-12-05T13:57:00.849Z,5.03
2018-12-05T14:02:11.155Z,4.33
2018-12-05T14:04:39.678Z,4.07
2018-12-05T14:07:08.166Z,4.83
2018-12-05T14:09:36.624Z,4.47
2018-12-05T14:12:12.817Z,4.00
2018-12-05T14:14:41.362Z,5.70
2018-12-05T14:17:09.874Z,5.67
2018-12-05T14:19:38.380Z,4.37
2018-12-05T14:22:06.838Z,5.60
2018-12-05T14:24:35.272Z,5.07
2018-12-05T14:27:03.778Z,5.40
2018-12-05T14:29:32.303Z,4.20
2018-12-05T14:32:00.913Z,4.50
2018-12-05T14:34:29.285Z,4.30
2018-12-05T14:36:57.616Z,3.77
2018-12-05T14:39:26.437Z,5.03
2018-12-05T14:41:55.978Z,4.07
2018-12-05T14:44:24.352Z,5.23
2018-12-05T14:46:52.803Z,4.50
2018-12-05T14:49:21.309Z,4.73
2018-12-05T14:51:49.707Z,4.40
2018-12-05T14:54:19.460Z,4.27
2018-12-05T14:56:47.816Z,4.50
2018-12-05T14:59:16.255Z,4.20
2018-12-05T15:01:44.607Z,4.00
2018-12-05T15:04:12.992Z,4.13
2018-12-05T15:06:41.376Z,4.10
2018-12-05T15:09:11.471Z,3.93
2018-12-05T15:11:40.279Z,7.27
2018-12-05T15:14:08.893Z,7.53
2018-12-05T15:16:37.669Z,5.30
2018-12-05T15:19:06.251Z,5.40
2018-12-05T15:21:34.683Z,5.63
2018-12-05T15:24:03.277Z,4.30
2018-12-05T15:26:31.683Z,4.37
2018-12-05T15:29:00.044Z,3.77
2018-12-05T15:31:31.717Z,4.30
2018-12-05T15:34:00.420Z,4.50
2018-12-05T15:36:28.919Z,4.63
2018-12-05T15:41:38.847Z,4.20
2018-12-05T15:44:07.665Z,4.10
2018-12-05T15:49:18.648Z,4.20
2018-12-05T15:51:47.103Z,4.63
2018-12-05T15:56:57.243Z,4.60
2018-12-05T15:59:25.602Z,4.93
2018-12-05T16:01:54.059Z,4.13
2018-12-05T16:04:22.454Z,4.63
2018-12-05T16:06:50.811Z,4.20
2018-12-05T16:09:19.148Z,4.40
2018-12-05T16:14:29.539Z,4.60
2018-12-05T16:16:57.891Z,3.57
2018-12-05T16:19:26.541Z,4.33
2018-12-05T16:21:54.890Z,4.47
2018-12-05T16:24:23.178Z,4.77
2018-12-05T16:29:35.970Z,3.57
2018-12-05T16:32:04.367Z,3.83
2018-12-05T16:37:14.630Z,4.53
2018-12-05T16:39:42.950Z,3.70
2018-12-05T16:42:11.418Z,4.27
2018-12-05T16:44:39.894Z,5.00
2018-12-05T16:49:49.831Z,4.33
2018-12-05T16:52:18.588Z,5.07
2018-12-05T16:57:29.949Z,3.90
2018-12-05T16:59:58.444Z,4.80
2018-12-05T17:02:26.987Z,5.27
2018-12-05T17:04:55.285Z,4.90
2018-12-05T17:10:06.060Z,4.67
2018-12-05T17:12:34.408Z,5.70
2018-12-05T17:15:03.362Z,5.87
2018-12-05T17:17:32.943Z,5.27
2018-12-05T17:20:01.452Z,5.93
2018-12-05T17:25:08.830Z,5.60
2018-12-05T17:27:37.144Z,4.90
2018-12-05T17:30:06.824Z,5.00
2018-12-05T17:32:35.447Z,5.27
2018-12-05T17:37:46.170Z,4.03
2018-12-05T17:40:14.954Z,3.87
2018-12-05T17:45:25.386Z,4.63
2018-12-05T17:47:53.896Z,4.83
2018-12-05T17:50:23.345Z,4.80
2018-12-05T17:52:52.034Z,4.50
2018-12-05T17:55:20.403Z,3.90
2018-12-05T17:57:48.778Z,3.87
2018-12-05T18:00:17.178Z,5.53
2018-12-05T18:02:45.596Z,3.93
2018-12-05T18:05:14.040Z,4.50
2018-12-05T18:10:24.224Z,3.87
2018-12-05T18:12:52.617Z,3.43
2018-12-05T18:18:02.929Z,4.37
2018-12-05T18:20:31.322Z,4.53
2018-12-05T18:25:41.449Z,5.20
2018-12-05T18:28:09.926Z,4.43
2018-12-05T18:30:38.375Z,5.23
2018-12-05T18:33:06.906Z,5.17
2018-12-05T18:38:13.862Z,6.37
2018-12-05T18:40:42.356Z,4.10
2018-12-05T18:45:52.476Z,4.23
2018-12-05T18:48:20.922Z,4.63
2018-12-05T18:50:49.591Z,4.37
2018-12-05T18:53:18.081Z,4.47
2018-12-05T18:58:28.947Z,4.77
2018-12-05T19:00:57.559Z,4.30
2018-12-05T19:06:08.315Z,4.87
2018-12-05T19:08:36.846Z,3.90
2018-12-05T19:11:05.347Z,3.90
2018-12-05T19:16:25.856Z,4.23
2018-12-05T19:18:54.355Z,4.07
2018-12-05T19:21:22.881Z,3.53
2018-12-05T19:23:51.349Z,3.80
2018-12-05T19:26:19.752Z,4.30
2018-12-05T19:28:48.239Z,4.63
2018-12-05T19:31:19.507Z,4.07
2018-12-05T19:33:47.397Z,3.90
2018-12-05T19:36:15.982Z,3.53
2018-12-05T19:38:44.371Z,3.40
2018-12-05T19:41:12.705Z,3.43
2018-12-05T19:43:41.237Z,3.73
2018-12-05T19:46:09.665Z,3.57
2018-12-05T19:48:39.824Z,4.00
2018-12-05T19:51:08.562Z,4.20
2018-12-05T19:53:37.086Z,4.07
2018-12-05T19:56:05.798Z,3.87
2018-12-05T19:58:34.202Z,5.47
2018-12-05T20:01:02.785Z,4.93
2018-12-05T20:03:31.310Z,5.07
2018-12-05T20:06:00.085Z,4.23
2018-12-05T20:08:28.929Z,5.00
2018-12-05T20:10:57.425Z,5.80
2018-12-05T20:13:26.020Z,6.73
2018-12-05T20:15:54.516Z,5.17
2018-12-05T20:18:23.054Z,6.03
2018-12-05T20:20:51.462Z,4.43
2018-12-05T20:23:19.843Z,4.60
2018-12-05T20:25:48.412Z,4.10
2018-12-05T20:28:16.813Z,4.83
2018-12-05T20:30:45.302Z,4.13
2018-12-05T20:33:13.679Z,4.37
2018-12-05T20:35:43.291Z,4.63
2018-12-05T20:38:11.862Z,3.87
2018-12-05T20:40:40.364Z,4.37
2018-12-05T20:43:08.871Z,4.20
2018-12-05T20:45:37.573Z,4.40
2018-12-05T20:48:06.218Z,4.47
2018-12-05T20:50:34.739Z,4.23
2018-12-05T20:53:03.348Z,4.37
2018-12-05T20:55:31.830Z,4.40
2018-12-05T20:58:00.356Z,4.33
2018-12-05T21:00:29.122Z,3.60
2018-12-05T21:02:57.841Z,3.97
2018-12-05T21:05:26.238Z,3.80
2018-12-05T21:07:54.696Z,3.93
2018-12-05T21:10:23.084Z,3.30
2018-12-05T21:12:51.918Z,3.57
2018-12-05T21:15:20.374Z,3.50
2018-12-05T21:17:48.928Z,3.33
2018-12-05T21:20:17.513Z,3.20
2018-12-05T21:22:47.372Z,3.07
2018-12-05T21:25:16.242Z,3.20
2018-12-05T21:27:44.692Z,2.40
2018-12-05T21:33:23.472Z,3.10
2018-12-05T21:35:51.819Z,3.57
2018-12-05T21:41:02.621Z,3.23
2018-12-05T21:43:31.043Z,3.90
2018-12-05T21:48:41.596Z,4.03
2018-12-05T21:51:10.014Z,4.00
2018-12-05T21:53:38.352Z,3.57
2018-12-05T21:56:06.951Z,4.27
2018-12-05T21:58:35.410Z,3.70
2018-12-05T22:01:04.067Z,3.20
2018-12-05T22:06:14.842Z,4.73
2018-12-05T22:08:43.163Z,3.30
2018-12-05T22:11:11.630Z,3.50
2018-12-05T22:13:40.045Z,2.97
2018-12-05T22:16:08.481Z,3.33
2018-12-05T22:18:37.467Z,3.23
2018-12-05T22:21:06.053Z,3.33
2018-12-05T22:23:34.550Z,2.87
2018-12-05T22:28:41.730Z,2.60
2018-12-05T22:31:10.252Z,3.97
2018-12-05T22:33:38.724Z,2.80
2018-12-05T22:36:07.202Z,2.43
2018-12-05T22:41:17.525Z,2.13
2018-12-05T22:43:45.910Z,3.00
2018-12-05T22:48:56.497Z,2.10
2018-12-05T22:51:25.034Z,1.90
2018-12-05T22:53:53.429Z,2.40
2018-12-05T22:56:21.856Z,3.13
2018-12-05T23:01:32.418Z,2.43
2018-12-05T23:04:00.888Z,2.57
2018-12-05T23:06:29.259Z,3.27
2018-12-05T23:08:57.647Z,2.63
2018-12-05T23:14:04.712Z,2.40
2018-12-05T23:16:33.429Z,2.40
2018-12-05T23:21:44.355Z,3.43
2018-12-05T23:24:12.757Z,2.30
2018-12-05T23:29:23.339Z,2.20
2018-12-05T23:31:51.933Z,2.00
2018-12-05T23:34:20.552Z,2.00
2018-12-05T23:36:48.903Z,2.30
2018-12-05T23:39:17.252Z,1.83
2018-12-05T23:41:45.587Z,1.67
2018-12-05T23:44:14.069Z,1.70
2018-12-05T23:46:42.387Z,1.60
2018-12-05T23:49:10.703Z,2.00
2018-12-05T23:51:39.072Z,1.43
2018-12-05T23:54:07.574Z,1.50
2018-12-05T23:56:35.936Z,1.60
2018-12-05T23:59:04.736Z,1.50
